Time;durP1;ratioP1;P1;durP2;ratioP2;P2;SDS_P1;SDS_P2;PMS_P1;PMS_P2;Temp;Humidity;BMP_temperature;BMP_pressure;BME280_temperature;BME280_humidity;BME280_pressure;Samples;Min_cycle;Max_cycle;Signal;HPM_P1;HPM_P2
2022/03/14 00:00:13;;;;;;;;;;;12.50;77.30;;;;;;6250236;23;19903;-89
2022/03/14 00:03:05;;;;;;;;;;;12.50;77.30;;;;;;6252554;23;19978;-90
2022/03/14 00:05:44;;;;;;;;;;;;;;;;;;;;;
2022/03/14 00:08:23;;;;;;;;;;;;;;;;;;;;;
2022/03/14 00:10:59;;;;;;;;;;;12.50;77.20;;;;;;6275660;22;19908;-90
2022/03/14 00:13:38;;;;;;;;;;;;;;;;;;;;;
2022/03/14 00:16:30;;;;;;;;;;;;;;;;;;;;;
2022/03/14 00:19:24;;;;;;;;;;;12.60;77.30;;;;;;6249687;22;19934;-89
2022/03/14 00:22:15;;;;;;;;;;;12.50;77.30;;;;;;6249644;23;19907;-89
2022/03/14 00:24:39;;;;;;;;;;;12.50;77.30;;;;;;6248008;23;19911;-89
2022/03/14 00:27:08;;;;;;;;;;;12.50;77.50;;;;;;6256096;22;20389;-90
2022/03/14 00:29:36;;;;;;;;;;;12.50;77.60;;;;;;6262476;22;19938;-89
2022/03/14 00:32:07;;;;;;;;;;;12.50;77.70;;;;;;6234642;22;19943;-90
2022/03/14 00:34:35;;;;;;;;;;;12.40;77.80;;;;;;6232321;22;19962;-90
2022/03/14 00:37:04;;;;;;;;;;;12.50;77.90;;;;;;6228700;22;19941;-89
2022/03/14 00:39:42;;;;;;;;;;;12.50;78.00;;;;;;6253495;22;20314;-90
2022/03/14 00:42:08;;;;;;;;;;;12.40;78.00;;;;;;6253712;22;19904;-90
2022/03/14 00:44:42;;;;;;;;;;;12.40;78.10;;;;;;6228425;22;20310;-89
2022/03/14 00:47:16;;;;;;;;;;;12.40;78.20;;;;;;6253450;22;20314;-90
2022/03/14 00:49:49;;;;;;;;;;;12.40;78.20;;;;;;6228302;22;20356;-91
2022/03/14 00:52:17;;;;;;;;;;;12.40;78.30;;;;;;6253096;22;20191;-91
2022/03/14 00:55:03;;;;;;;;;;;12.40;78.20;;;;;;6227871;22;19986;-89
2022/03/14 00:57:29;;;;;;;;;;;12.40;78.10;;;;;;6253627;22;19903;-90
2022/03/14 01:00:25;;;;;;;;;;;;;;;;;;;;;
2022/03/14 01:03:02;;;;;;;;;;;12.40;78.50;;;;;;6256201;22;19994;-89
2022/03/14 01:05:31;;;;;;;;;;;12.40;78.60;;;;;;6253650;22;19985;-90
2022/03/14 01:08:25;;;;;;;;;;;12.40;78.70;;;;;;6253105;22;19903;-91
2022/03/14 01:11:23;;;;;;;;;;;12.40;78.80;;;;;;6252756;22;19915;-90
2022/03/14 01:13:51;;;;;;;;;;;12.30;78.80;;;;;;6280653;22;20310;-89
2022/03/14 01:16:40;;;;;;;;;;;12.30;79.00;;;;;;6253151;22;19907;-90
2022/03/14 01:22:09;;;;;;;;;;;12.30;79.10;;;;;;6236406;22;19907;-91
2022/03/14 01:24:38;;;;;;;;;;;12.30;79.20;;;;;;6253369;22;19917;-89
2022/03/14 01:27:17;;;;;;;;;;;;;;;;;;;;;
2022/03/14 01:32:37;;;;;;;;;;;12.20;79.50;;;;;;6257425;22;19907;-90
2022/03/14 01:35:18;;;;;;;;;;;;;;;;;;;;;
2022/03/14 01:37:57;;;;;;;;;;;;;;;;;;;;;
2022/03/14 01:40:53;;;;;;;;;;;;;;;;;;;;;
2022/03/14 01:43:40;;;;;;;;;;;12.10;79.90;;;;;;6268747;22;19994;-90
2022/03/14 01:46:14;;;;;;;;;;;12.20;80.00;;;;;;6240577;22;19925;-91
2022/03/14 01:49:14;;;;;;;;;;;;;;;;;;;;;
2022/03/14 01:51:54;;;;;;;;;;;12.10;80.20;;;;;;6305107;22;19914;-89
2022/03/14 01:54:43;;;;;;;;;;;12.10;80.20;;;;;;6276446;22;19910;-91
2022/03/14 01:57:08;;;;;;;;;;;12.20;80.40;;;;;;6241800;22;19918;-90
2022/03/14 01:59:38;;;;;;;;;;;12.10;80.50;;;;;;6254555;22;19903;-88
2022/03/14 02:02:13;;;;;;;;;;;12.10;80.60;;;;;;6253079;22;19972;-90
2022/03/14 02:05:01;;;;;;;;;;;12.10;80.60;;;;;;6253250;22;19919;-89
2022/03/14 02:10:28;;;;;;;;;;;;;;;;;;;;;
2022/03/14 02:13:04;;;;;;;;;;;;;;;;;;;;;
2022/03/14 02:18:18;;;;;;;;;;;12.10;81.00;;;;;;6263100;22;19989;-89
2022/03/14 02:20:54;;;;;;;;;;;12.00;81.10;;;;;;6251575;22;19910;-91
2022/03/14 02:23:22;;;;;;;;;;;12.00;81.20;;;;;;6252846;22;19977;-91
2022/03/14 02:25:55;;;;;;;;;;;12.00;81.20;;;;;;6253166;22;19903;-91
2022/03/14 02:28:37;;;;;;;;;;;;;;;;;;;;;
2022/03/14 02:31:06;;;;;;;;;;;12.00;81.40;;;;;;6255475;22;19978;-90
2022/03/14 02:33:40;;;;;;;;;;;12.00;81.50;;;;;;6252260;22;19907;-90
2022/03/14 02:39:02;;;;;;;;;;;12.00;81.70;;;;;;6279698;22;19903;-90
2022/03/14 02:41:32;;;;;;;;;;;12.00;81.80;;;;;;6245954;22;19989;-91
2022/03/14 02:44:11;;;;;;;;;;;;;;;;;;;;;
2022/03/14 02:46:57;;;;;;;;;;;;;;;;;;;;;
2022/03/14 02:49:53;;;;;;;;;;;;;;;;;;;;;
2022/03/14 02:52:41;;;;;;;;;;;11.90;82.10;;;;;;6255202;22;19986;-91
2022/03/14 02:58:03;;;;;;;;;;;11.90;83.00;;;;;;6273506;22;19903;-89
2022/03/14 03:03:56;;;;;;;;;;;11.90;82.60;;;;;;6284694;22;19918;-88
2022/03/14 03:06:45;;;;;;;;;;;11.80;82.80;;;;;;6216365;22;19904;-89
2022/03/14 03:12:29;;;;;;;;;;;;;;;;;;;;;
2022/03/14 03:15:00;;;;;;;;;;;11.90;83.70;;;;;;6281963;22;20227;-91
2022/03/14 03:17:36;;;;;;;;;;;11.80;84.10;;;;;;6281074;22;19978;-89
2022/03/14 03:20:15;;;;;;;;;;;;;;;;;;;;;
2022/03/14 03:22:52;;;;;;;;;;;11.80;84.80;;;;;;6281447;22;19994;-91
2022/03/14 03:25:35;;;;;;;;;;;11.70;85.10;;;;;;6230360;22;19926;-90
2022/03/14 03:31:20;;;;;;;;;;;;;;;;;;;;;
2022/03/14 03:33:59;;;;;;;;;;;11.70;85.70;;;;;;6307012;22;19895;-89
2022/03/14 03:36:37;;;;;;;;;;;11.70;85.90;;;;;;6280271;22;19892;-91
2022/03/14 03:39:12;;;;;;;;;;;11.70;86.10;;;;;;6275799;22;19907;-90
2022/03/14 03:41:46;;;;;;;;;;;11.60;86.10;;;;;;6254259;22;19911;-90
2022/03/14 03:44:20;;;;;;;;;;;11.70;86.30;;;;;;6254695;22;20321;-90
2022/03/14 03:47:01;;;;;;;;;;;;;;;;;;;;;
2022/03/14 03:49:41;;;;;;;;;;;11.60;86.40;;;;;;6280836;22;20058;-90
2022/03/14 03:52:17;;;;;;;;;;;11.60;86.50;;;;;;6253775;22;20229;-89
2022/03/14 03:55:03;;;;;;;;;;;11.60;86.60;;;;;;6230144;22;19911;-90
2022/03/14 03:57:31;;;;;;;;;;;11.60;86.60;;;;;;6280382;22;19903;-91
2022/03/14 04:00:06;;;;;;;;;;;11.60;86.80;;;;;;6278836;22;20424;-91
2022/03/14 04:02:45;;;;;;;;;;;11.60;86.80;;;;;;6252869;22;19903;-89
2022/03/14 04:08:17;;;;;;;;;;;11.60;87.10;;;;;;6247344;22;19907;-90
2022/03/14 04:11:16;;;;;;;;;;;;;;;;;;;;;
2022/03/14 04:13:51;;;;;;;;;;;11.60;87.30;;;;;;6280410;22;19982;-90
2022/03/14 04:16:25;;;;;;;;;;;11.50;87.30;;;;;;6253607;22;19949;-90
2022/03/14 04:19:16;;;;;;;;;;;11.50;87.30;;;;;;6229139;22;20337;-91
2022/03/14 04:22:11;;;;;;;;;;;11.50;87.40;;;;;;6256664;22;20301;-90
2022/03/14 04:25:04;;;;;;;;;;;11.50;87.50;;;;;;6244991;22;19911;-90
2022/03/14 04:27:44;;;;;;;;;;;11.50;87.60;;;;;;6263990;22;19919;-89
2022/03/14 04:30:19;;;;;;;;;;;11.50;87.70;;;;;;6248546;23;19926;-91
2022/03/14 04:36:22;;;;;;;;;;;11.50;87.70;;;;;;6257840;22;20350;-91
2022/03/14 04:38:49;;;;;;;;;;;;;;;;;;;;;
2022/03/14 04:41:18;;;;;;;;;;;11.50;87.80;;;;;;6280560;22;20361;-89
2022/03/14 04:43:56;;;;;;;;;;;11.50;87.70;;;;;;6253197;22;19911;-90
2022/03/14 04:46:48;;;;;;;;;;;;;;;;;;;;;
2022/03/14 04:49:44;;;;;;;;;;;;;;;;;;;;;
2022/03/14 04:52:33;;;;;;;;;;;11.50;87.60;;;;;;6280626;22;20281;-89
2022/03/14 04:55:19;;;;;;;;;;;11.50;87.50;;;;;;6253425;22;19904;-89
2022/03/14 05:00:51;;;;;;;;;;;11.40;87.20;;;;;;6268978;22;19914;-89
2022/03/14 05:03:19;;;;;;;;;;;11.40;87.10;;;;;;6254430;22;20310;-90
2022/03/14 05:05:57;;;;;;;;;;;11.40;87.30;;;;;;6254142;22;19903;-89
2022/03/14 05:08:25;;;;;;;;;;;11.40;87.30;;;;;;6231065;22;19908;-90
2022/03/14 05:11:32;;;;;;;;;;;;;;;;;;;;;
2022/03/14 05:16:43;;;;;;;;;;;11.30;88.50;;;;;;6288905;22;19891;-89
2022/03/14 05:19:14;;;;;;;;;;;11.30;89.20;;;;;;6253939;22;19891;-89
2022/03/14 05:21:45;;;;;;;;;;;11.20;89.30;;;;;;6232284;22;19941;-88
2022/03/14 05:24:26;;;;;;;;;;;11.20;89.60;;;;;;6228956;22;19982;-88
2022/03/14 05:30:05;;;;;;;;;;;11.10;90.10;;;;;;6280886;22;19931;-90
2022/03/14 05:32:39;;;;;;;;;;;11.10;90.20;;;;;;6252490;22;19907;-89
2022/03/14 05:35:27;;;;;;;;;;;11.00;90.40;;;;;;6252925;22;20229;-91
2022/03/14 05:38:16;;;;;;;;;;;11.00;90.60;;;;;;6253032;22;19903;-89
2022/03/14 05:41:30;;;;;;;;;;;11.00;90.70;;;;;;6273761;22;19904;-90
2022/03/14 05:44:06;;;;;;;;;;;;;;;;;;;;;
2022/03/14 05:46:35;;;;;;;;;;;10.90;90.80;;;;;;6279746;22;19947;-88
2022/03/14 05:52:49;;;;;;;;;;;10.90;90.80;;;;;;6250672;22;19911;-89
2022/03/14 05:55:16;;;;;;;;;;;10.90;90.80;;;;;;6253018;22;19910;-90
2022/03/14 05:57:48;;;;;;;;;;;10.90;90.80;;;;;;6227835;22;19946;-89
2022/03/14 06:00:23;;;;;;;;;;;10.90;90.80;;;;;;6228272;22;19907;-88
2022/03/14 06:05:57;;;;;;;;;;;10.90;90.90;;;;;;6268208;22;19903;-90
2022/03/14 06:09:00;;;;;;;;;;;10.90;90.90;;;;;;6252542;22;19910;-89
2022/03/14 06:14:50;;;;;;;;;;;;;;;;;;;;;
2022/03/14 06:17:34;;;;;;;;;;;;;;;;;;;;;
2022/03/14 06:20:32;;;;;;;;;;;;;;;;;;;;;
2022/03/14 06:23:21;;;;;;;;;;;10.80;91.00;;;;;;6282014;22;19963;-90
2022/03/14 06:32:18;;;;;;;;;;;10.80;91.00;;;;;;6254271;22;19934;-91
2022/03/14 06:35:00;;;;;;;;;;;10.80;91.10;;;;;;6229550;22;19915;-88
2022/03/14 06:37:29;;;;;;;;;;;10.80;91.00;;;;;;6231614;22;19986;-90
2022/03/14 06:40:17;;;;;;;;;;;10.80;91.10;;;;;;6229744;22;19907;-90
2022/03/14 06:46:38;;;;;;;;;;;10.80;91.10;;;;;;6273566;22;19959;-89
2022/03/14 06:49:45;;;;;;;;;;;10.80;91.10;;;;;;6279327;22;19899;-90
2022/03/14 06:52:50;;;;;;;;;;;10.80;91.10;;;;;;6300556;22;19915;-88
2022/03/14 06:55:45;;;;;;;;;;;10.80;91.10;;;;;;6276839;22;19914;-91
2022/03/14 07:14:17;;;;;;;;;;;;;;;;;;;;;
2022/03/14 07:20:28;;;;;;;;;;;;;;;;;;;;;
2022/03/14 07:23:15;;;;;;;;;;;10.80;91.30;;;;;;6128043;23;19957;-88
2022/03/14 07:25:49;;;;;;;;;;;10.90;91.40;;;;;;6190419;22;19903;-87
2022/03/14 07:28:28;;;;;;;;;;;10.90;91.30;;;;;;6279241;22;19969;-87
2022/03/14 07:34:32;;;;;;;;;;;10.90;91.40;;;;;;6278972;22;19914;-90
2022/03/14 07:37:13;;;;;;;;;;;10.90;91.40;;;;;;6243714;22;19910;-88
2022/03/14 07:40:07;;;;;;;;;;;10.90;91.40;;;;;;6252834;22;20305;-89
2022/03/14 07:43:08;;;;;;;;;;;10.90;91.40;;;;;;6253990;22;20277;-89
2022/03/14 07:45:54;;;;;;;;;;;10.90;91.40;;;;;;6248546;22;19911;-87
2022/03/14 07:48:27;;;;;;;;;;;10.90;91.40;;;;;;6229783;22;20324;-88
2022/03/14 07:51:08;;;;;;;;;;;10.90;91.40;;;;;;6253734;22;20229;-88
2022/03/14 07:53:36;;;;;;;;;;;10.90;91.50;;;;;;6230052;22;20332;-88
2022/03/14 07:56:04;;;;;;;;;;;10.90;91.50;;;;;;6252575;22;19914;-88
2022/03/14 07:58:39;;;;;;;;;;;10.90;91.50;;;;;;6228118;22;19907;-88
2022/03/14 08:01:05;;;;;;;;;;;11.00;91.50;;;;;;6254102;22;19907;-89
2022/03/14 08:03:48;;;;;;;;;;;11.00;91.40;;;;;;6279162;22;19986;-86
2022/03/14 08:06:55;;;;;;;;;;;11.00;91.40;;;;;;6253878;22;19904;-88
2022/03/14 08:09:23;;;;;;;;;;;11.00;91.50;;;;;;6279880;22;19912;-89
2022/03/14 08:11:58;;;;;;;;;;;;;;;;;;;;;
2022/03/14 08:26:53;;;;;;;;;;;11.20;91.50;;;;;;6165343;23;19991;-89
2022/03/14 08:29:23;;;;;;;;;;;11.20;91.50;;;;;;6195927;22;19903;-88
2022/03/14 08:34:56;;;;;;;;;;;11.30;91.50;;;;;;6304870;22;19907;-89
2022/03/14 08:37:29;;;;;;;;;;;11.30;91.50;;;;;;6272642;22;20344;-86
2022/03/14 08:40:20;;;;;;;;;;;11.30;91.40;;;;;;6254222;22;19903;-88
2022/03/14 08:43:15;;;;;;;;;;;11.30;91.40;;;;;;6279209;22;19903;-88
2022/03/14 08:46:14;;;;;;;;;;;11.40;91.40;;;;;;6278792;22;20292;-88
2022/03/14 08:49:21;;;;;;;;;;;11.40;91.50;;;;;;6232716;22;19907;-89
2022/03/14 09:01:41;;;;;;;;;;;11.40;91.30;;;;;;6219515;22;20250;-89
2022/03/14 09:10:37;;;;;;;;;;;;;;;;;;;;;
2022/03/14 09:13:41;;;;;;;;;;;11.40;91.20;;;;;;6280175;22;19974;-90
2022/03/14 09:16:39;;;;;;;;;;;;;;;;;;;;;
2022/03/14 09:19:34;;;;;;;;;;;;;;;;;;;;;
2022/03/14 09:22:40;;;;;;;;;;;;;;;;;;;;;
2022/03/14 09:25:28;;;;;;;;;;;11.40;91.10;;;;;;6258442;22;19990;-88
2022/03/14 09:28:04;;;;;;;;;;;;;;;;;;;;;
2022/03/14 09:31:06;;;;;;;;;;;;;;;;;;;;;
2022/03/14 09:34:09;;;;;;;;;;;;;;;;;;;;;
2022/03/14 09:36:35;;;;;;;;;;;11.50;91.10;;;;;;6257952;22;19949;-87
2022/03/14 09:39:14;;;;;;;;;;;11.50;91.10;;;;;;6269450;22;19907;-90
2022/03/14 09:45:14;;;;;;;;;;;11.50;91.10;;;;;;6271517;22;20317;-88
2022/03/14 09:48:01;;;;;;;;;;;;;;;;;;;;;
2022/03/14 09:50:47;;;;;;;;;;;11.60;91.10;;;;;;6280591;22;19994;-88
2022/03/14 09:53:19;;;;;;;;;;;11.60;91.10;;;;;;6253197;22;19903;-88
2022/03/14 09:56:13;;;;;;;;;;;11.60;90.90;;;;;;6280141;22;19903;-87
2022/03/14 10:01:43;;;;;;;;;;;11.60;91.00;;;;;;6217086;22;19903;-90
2022/03/14 10:04:39;;;;;;;;;;;11.70;91.00;;;;;;6254702;22;19915;-88
2022/03/14 10:09:57;;;;;;;;;;;11.70;91.10;;;;;;6291145;22;19907;-88
2022/03/14 10:12:53;;;;;;;;;;;;;;;;;;;;;
2022/03/14 10:15:27;;;;;;;;;;;11.80;91.00;;;;;;6307203;22;19914;-89
2022/03/14 10:18:22;;;;;;;;;;;11.80;91.00;;;;;;6273979;22;19907;-89
2022/03/14 10:21:43;;;;;;;;;;;;;;;;;;;;;
2022/03/14 10:27:55;;;;;;;;;;;11.90;91.10;;;;;;6250907;22;19903;-88
2022/03/14 10:30:40;;;;;;;;;;;;;;;;;;;;;
2022/03/14 10:33:19;;;;;;;;;;;;;;;;;;;;;
2022/03/14 10:35:54;;;;;;;;;;;12.10;91.00;;;;;;6280774;22;19982;-88
2022/03/14 10:38:50;;;;;;;;;;;;;;;;;;;;;
2022/03/14 10:41:46;;;;;;;;;;;12.10;90.90;;;;;;6268752;22;20268;-88
2022/03/14 10:44:23;;;;;;;;;;;12.10;90.90;;;;;;6253725;22;19911;-89
2022/03/14 10:47:12;;;;;;;;;;;12.10;90.90;;;;;;6281144;22;19957;-87
2022/03/14 10:49:42;;;;;;;;;;;12.10;90.80;;;;;;6253272;22;20314;-88
2022/03/14 10:52:22;;;;;;;;;;;12.10;90.70;;;;;;6229192;22;19930;-88
2022/03/14 10:54:56;;;;;;;;;;;12.00;90.70;;;;;;6253833;22;19965;-89
2022/03/14 11:00:46;;;;;;;;;;;;;;;;;;;;;
2022/03/14 11:03:42;;;;;;;;;;;12.00;90.70;;;;;;6281060;22;19990;-88
2022/03/14 11:09:34;;;;;;;;;;;12.10;90.60;;;;;;6246488;22;19911;-88
2022/03/14 11:12:47;;;;;;;;;;;12.10;90.80;;;;;;6244414;22;20391;-89
2022/03/14 11:15:28;;;;;;;;;;;;;;;;;;;;;
2022/03/14 11:18:00;;;;;;;;;;;12.20;90.50;;;;;;6254893;22;19974;-89
2022/03/14 11:20:28;;;;;;;;;;;12.30;90.50;;;;;;6252562;22;19982;-88
2022/03/14 11:22:57;;;;;;;;;;;12.30;90.40;;;;;;6252154;22;19903;-87
2022/03/14 11:25:52;;;;;;;;;;;12.40;90.40;;;;;;6252490;22;19911;-88
2022/03/14 11:28:29;;;;;;;;;;;12.40;90.30;;;;;;6278536;22;19919;-88
2022/03/14 11:31:19;;;;;;;;;;;12.50;90.30;;;;;;6253220;22;19904;-89
2022/03/14 11:33:48;;;;;;;;;;;12.50;90.30;;;;;;6253899;22;19926;-89
2022/03/14 11:36:30;;;;;;;;;;;;;;;;;;;;;
2022/03/14 11:39:27;;;;;;;;;;;12.60;90.20;;;;;;6280539;22;20361;-86
2022/03/14 11:42:22;;;;;;;;;;;;;;;;;;;;;
2022/03/14 11:48:20;;;;;;;;;;;12.90;90.00;;;;;;6205682;22;19938;-89
2022/03/14 11:51:25;;;;;;;;;;;;;;;;;;;;;
2022/03/14 11:54:11;;;;;;;;;;;13.10;89.10;;;;;;6284608;22;19903;-90
2022/03/14 11:57:07;;;;;;;;;;;;;;;;;;;;;
2022/03/14 11:59:59;;;;;;;;;;;13.20;88.40;;;;;;6304770;22;19892;-90
2022/03/14 12:03:09;;;;;;;;;;;13.20;88.40;;;;;;6253530;22;19904;-90
2022/03/14 12:08:50;;;;;;;;;;;13.30;88.00;;;;;;6264313;22;19903;-89
2022/03/14 12:11:55;;;;;;;;;;;13.40;87.70;;;;;;6254215;22;20310;-89
2022/03/14 12:14:46;;;;;;;;;;;13.30;87.40;;;;;;6156733;23;19949;-90
2022/03/14 12:17:23;;;;;;;;;;;13.30;87.30;;;;;;6252253;22;19910;-89
2022/03/14 12:22:56;;;;;;;;;;;13.10;87.30;;;;;;6255488;22;19937;-89
2022/03/14 12:28:47;;;;;;;;;;;;;;;;;;;;;
2022/03/14 12:38:26;;;;;;;;;;;;;;;;;;;;;
2022/03/14 12:40:22;;;;;;;;;;;12.90;88.10;;;;;;6257726;22;19910;-91
2022/03/14 12:43:09;;;;;;;;;;;12.90;88.10;;;;;;6281489;22;19923;-91
2022/03/14 12:45:59;;;;;;;;;;;12.90;88.00;;;;;;6260759;22;19995;-91
2022/03/14 12:48:40;;;;;;;;;;;;;;;;;;;;;
2022/03/14 12:51:22;;;;;;;;;;;;;;;;;;;;;
2022/03/14 12:54:01;;;;;;;;;;;12.90;88.00;;;;;;6281686;22;19892;-91
2022/03/14 12:56:49;;;;;;;;;;;12.90;88.00;;;;;;6276735;22;19903;-93
2022/03/14 13:00:04;;;;;;;;;;;13.00;88.00;;;;;;6260050;22;19978;-91
2022/03/14 13:02:51;;;;;;;;;;;13.00;87.70;;;;;;6279395;22;19903;-90
2022/03/14 13:08:41;;;;;;;;;;;;;;;;;;;;;
2022/03/14 13:11:40;;;;;;;;;;;;;;;;;;;;;
2022/03/14 13:14:24;;;;;;;;;;;;;;;;;;;;;
2022/03/14 13:17:08;;;;;;;;;;;13.10;87.20;;;;;;6279499;22;19987;-90
2022/03/14 13:19:46;;;;;;;;;;;;;;;;;;;;;
2022/03/14 13:22:22;;;;;;;;;;;13.10;87.10;;;;;;6255697;22;19983;-90
2022/03/14 13:31:06;;;;;;;;;;;13.10;86.90;;;;;;6244337;22;19926;-91
2022/03/14 13:33:52;;;;;;;;;;;13.20;86.90;;;;;;6297521;22;19921;-92
2022/03/14 13:39:40;;;;;;;;;;;;;;;;;;;;;
2022/03/14 13:42:18;;;;;;;;;;;;;;;;;;;;;
2022/03/14 13:44:48;;;;;;;;;;;13.40;86.00;;;;;;6287684;22;19954;-91
2022/03/14 13:47:34;;;;;;;;;;;13.50;85.70;;;;;;6254064;22;19907;-90
2022/03/14 13:53:15;;;;;;;;;;;13.50;84.30;;;;;;6257552;22;19907;-90
2022/03/14 13:55:53;;;;;;;;;;;13.50;83.90;;;;;;6277482;22;19963;-91
2022/03/14 13:58:39;;;;;;;;;;;13.60;84.00;;;;;;6252274;22;19926;-90
2022/03/14 14:01:34;;;;;;;;;;;;;;;;;;;;;
2022/03/14 14:07:57;;;;;;;;;;;13.80;83.10;;;;;;6153004;23;20385;-91
2022/03/14 14:10:42;;;;;;;;;;;13.90;82.70;;;;;;6252990;22;19910;-91
2022/03/14 14:16:12;;;;;;;;;;;14.00;82.50;;;;;;6253302;22;19903;-88
2022/03/14 14:19:07;;;;;;;;;;;14.00;82.40;;;;;;6253095;22;19923;-90
2022/03/14 14:21:37;;;;;;;;;;;14.00;82.50;;;;;;6250644;22;19904;-91
2022/03/14 14:24:38;;;;;;;;;;;14.10;82.40;;;;;;6227266;22;19915;-92
2022/03/14 14:27:34;;;;;;;;;;;14.10;81.80;;;;;;6246602;23;19910;-90
2022/03/14 14:39:08;;;;;;;;;;;14.10;80.70;;;;;;6262984;22;20017;-90
2022/03/14 14:45:06;;;;;;;;;;;14.10;80.50;;;;;;6233327;22;20207;-91
2022/03/14 14:48:00;;;;;;;;;;;14.10;80.60;;;;;;6252302;22;19953;-90
2022/03/14 14:54:09;;;;;;;;;;;;;;;;;;;;;
2022/03/14 14:56:58;;;;;;;;;;;14.10;80.70;;;;;;6281712;22;20400;-90
2022/03/14 15:02:18;;;;;;;;;;;14.20;80.00;;;;;;6259376;22;19907;-90
2022/03/14 15:05:20;;;;;;;;;;;14.20;80.20;;;;;;6254362;22;19911;-90
2022/03/14 15:08:18;;;;;;;;;;;14.30;80.10;;;;;;6279831;22;19911;-90
2022/03/14 15:14:32;;;;;;;;;;;;;;;;;;;;;
2022/03/14 15:17:14;;;;;;;;;;;;;;;;;;;;;
2022/03/14 15:20:04;;;;;;;;;;;14.30;80.30;;;;;;6188959;22;19892;-92
2022/03/14 15:26:23;;;;;;;;;;;14.30;80.40;;;;;;6305849;22;19903;-91
2022/03/14 15:28:32;;;;;;;;;;;14.30;80.50;;;;;;6289225;22;19903;-92
2022/03/14 15:31:10;;;;;;;;;;;14.30;80.60;;;;;;6226072;23;19986;-90
2022/03/14 15:34:14;;;;;;;;;;;;;;;;;;;;;
2022/03/14 15:37:32;;;;;;;;;;;;;;;;;;;;;
2022/03/14 15:40:10;;;;;;;;;;;14.30;80.50;;;;;;6251067;23;19982;-88
2022/03/14 15:43:09;;;;;;;;;;;;;;;;;;;;;
2022/03/14 15:48:50;;;;;;;;;;;14.30;79.90;;;;;;6251006;22;19927;-90
2022/03/14 15:51:35;;;;;;;;;;;14.30;79.80;;;;;;6249676;22;19927;-91
2022/03/14 15:54:20;;;;;;;;;;;14.20;79.30;;;;;;6249663;23;19991;-90
2022/03/14 15:57:15;;;;;;;;;;;14.20;79.20;;;;;;6251376;23;19953;-90
2022/03/14 16:11:54;;;;;;;;;;;14.60;78.70;;;;;;6227241;22;19974;-90
2022/03/14 16:18:08;;;;;;;;;;;;;;;;;;;;;
2022/03/14 16:23:44;;;;;;;;;;;14.80;78.00;;;;;;6207133;22;19931;-89
2022/03/14 16:35:55;;;;;;;;;;;14.30;78.60;;;;;;6212127;22;19915;-91
2022/03/14 16:38:36;;;;;;;;;;;14.20;78.90;;;;;;6204686;23;19904;-91
2022/03/14 16:44:47;;;;;;;;;;;;;;;;;;;;;
2022/03/14 16:47:31;;;;;;;;;;;13.90;80.00;;;;;;6249595;23;19987;-90
2022/03/14 16:49:59;;;;;;;;;;;13.90;80.40;;;;;;6209380;23;19926;-90
2022/03/14 16:52:34;;;;;;;;;;;13.80;80.60;;;;;;6248296;23;19943;-89
2022/03/14 16:55:18;;;;;;;;;;;;;;;;;;;;;
2022/03/14 17:10:58;;;;;;;;;;;13.30;82.10;;;;;;6275046;22;19938;-92
2022/03/14 17:19:45;;;;;;;;;;;;;;;;;;;;;
2022/03/14 17:23:17;;;;;;;;;;;;;;;;;;;;;
2022/03/14 17:25:28;;;;;;;;;;;13.10;82.90;;;;;;6114643;23;19920;-90
2022/03/14 17:31:39;;;;;;;;;;;13.00;83.20;;;;;;6066463;23;19931;-92
2022/03/14 17:34:46;;;;;;;;;;;;;;;;;;;;;
2022/03/14 17:37:40;;;;;;;;;;;;;;;;;;;;;
2022/03/14 17:40:54;;;;;;;;;;;;;;;;;;;;;
2022/03/14 17:43:57;;;;;;;;;;;;;;;;;;;;;
2022/03/14 18:02:30;;;;;;;;;;;12.70;85.00;;;;;;5854529;24;19908;-95
2022/03/14 18:18:15;;;;;;;;;;;12.40;85.80;;;;;;5812922;24;19956;-88
2022/03/14 18:21:18;;;;;;;;;;;12.30;85.90;;;;;;5900077;24;20248;-90
2022/03/14 18:24:09;;;;;;;;;;;12.20;86.10;;;;;;5906680;24;19915;-91
2022/03/14 18:26:58;;;;;;;;;;;;;;;;;;;;;
2022/03/14 18:32:51;;;;;;;;;;;12.00;86.60;;;;;;6117700;23;19936;-91
2022/03/14 18:35:41;;;;;;;;;;;;;;;;;;;;;
2022/03/14 18:38:22;;;;;;;;;;;;;;;;;;;;;
2022/03/14 18:41:16;;;;;;;;;;;11.70;87.00;;;;;;6263621;22;20277;-89
2022/03/14 18:57:37;;;;;;;;;;;11.50;87.80;;;;;;6093917;23;19894;-91
2022/03/14 19:00:39;;;;;;;;;;;11.40;87.90;;;;;;6111084;23;19931;-93
2022/03/14 19:03:47;;;;;;;;;;;;;;;;;;;;;
2022/03/14 19:13:05;;;;;;;;;;;11.10;88.40;;;;;;6068046;23;19905;-93
2022/03/14 19:43:19;;;;;;;;;;;;;;;;;;;;;
2022/03/14 19:47:08;;;;;;;;;;;;;;;;;;;;;
2022/03/14 20:02:18;;;;;;;;;;;;;;;;;;;;;
2022/03/14 20:14:33;;;;;;;;;;;;;;;;;;;;;
2022/03/14 20:17:25;;;;;;;;;;;;;;;;;;;;;
2022/03/14 20:23:13;;;;;;;;;;;9.50;90.50;;;;;;5963743;24;19911;-93
2022/03/14 20:28:54;;;;;;;;;;;9.40;90.60;;;;;;5982344;23;19895;-93
2022/03/14 20:31:38;;;;;;;;;;;9.30;90.60;;;;;;5983005;23;19895;-94
2022/03/14 20:38:30;;;;;;;;;;;9.20;90.70;;;;;;6079848;23;19917;-91
2022/03/14 20:41:05;;;;;;;;;;;;;;;;;;;;;
2022/03/14 20:44:12;;;;;;;;;;;;;;;;;;;;;
2022/03/14 20:49:50;;;;;;;;;;;;;;;;;;;;;
2022/03/14 20:52:40;;;;;;;;;;;8.90;90.70;;;;;;6197502;23;20330;-92
2022/03/14 20:55:16;;;;;;;;;;;8.90;90.80;;;;;;6197218;23;19912;-94
2022/03/14 20:58:06;;;;;;;;;;;;;;;;;;;;;
2022/03/14 21:00:35;;;;;;;;;;;8.80;90.90;;;;;;6193676;23;19928;-88
2022/03/14 21:03:30;;;;;;;;;;;8.70;90.90;;;;;;6192223;23;19955;-89
2022/03/14 21:06:34;;;;;;;;;;;;;;;;;;;;;
2022/03/14 21:12:17;;;;;;;;;;;8.60;91.00;;;;;;6176900;23;19904;-87
2022/03/14 21:15:13;;;;;;;;;;;;;;;;;;;;;
2022/03/14 21:18:21;;;;;;;;;;;;;;;;;;;;;
2022/03/14 21:24:27;;;;;;;;;;;8.50;91.10;;;;;;6172862;23;19912;-90
2022/03/14 21:39:27;;;;;;;;;;;;;;;;;;;;;
2022/03/14 21:45:46;;;;;;;;;;;8.20;91.50;;;;;;6214416;23;19919;-89
2022/03/14 21:48:14;;;;;;;;;;;8.20;91.50;;;;;;6192227;23;19959;-89
2022/03/14 21:51:02;;;;;;;;;;;8.20;91.80;;;;;;6214995;23;20430;-90
2022/03/14 21:53:58;;;;;;;;;;;;;;;;;;;;;
2022/03/14 21:56:27;;;;;;;;;;;8.20;91.60;;;;;;6222877;23;20018;-87
2022/03/14 21:59:04;;;;;;;;;;;8.20;91.60;;;;;;6199818;23;19927;-89
2022/03/14 22:02:03;;;;;;;;;;;;;;;;;;;;;
2022/03/14 22:04:44;;;;;;;;;;;8.20;91.70;;;;;;6154318;23;19911;-89
2022/03/14 22:10:24;;;;;;;;;;;8.20;91.80;;;;;;6214659;23;19910;-88
2022/03/14 22:13:19;;;;;;;;;;;8.20;91.90;;;;;;6219309;23;19944;-89
2022/03/14 22:28:30;;;;;;;;;;;;;;;;;;;;;
2022/03/14 22:44:03;;;;;;;;;;;8.10;92.20;;;;;;6008099;23;19910;-89
2022/03/14 22:56:29;;;;;;;;;;;;;;;;;;;;;
2022/03/14 23:06:07;;;;;;;;;;;7.90;92.60;;;;;;5987005;24;19921;-90
2022/03/14 23:09:03;;;;;;;;;;;;;;;;;;;;;
2022/03/14 23:11:37;;;;;;;;;;;7.80;92.60;;;;;;5984151;24;19985;-89
2022/03/14 23:14:28;;;;;;;;;;;7.80;92.60;;;;;;5980102;23;19974;-89
2022/03/14 23:16:57;;;;;;;;;;;7.80;92.60;;;;;;6083865;23;19908;-89
2022/03/14 23:19:34;;;;;;;;;;;7.80;92.70;;;;;;6194024;23;19908;-90
2022/03/14 23:22:13;;;;;;;;;;;7.80;92.70;;;;;;6219452;23;19915;-90
2022/03/14 23:25:17;;;;;;;;;;;;;;;;;;;;;
2022/03/14 23:28:09;;;;;;;;;;;;;;;;;;;;;
2022/03/14 23:30:37;;;;;;;;;;;7.90;92.90;;;;;;6220131;23;20058;-90
2022/03/14 23:33:15;;;;;;;;;;;7.90;92.90;;;;;;6207268;23;19892;-90
2022/03/14 23:36:01;;;;;;;;;;;;;;;;;;;;;
2022/03/14 23:41:28;;;;;;;;;;;7.90;93.00;;;;;;6245607;23;19902;-90
2022/03/14 23:44:12;;;;;;;;;;;7.90;93.00;;;;;;6193276;23;19949;-89
